Time;durP1;ratioP1;P1;durP2;ratioP2;P2;SDS_P1;SDS_P2;PMS_P1;PMS_P2;Temp;Humidity;BMP_temperature;BMP_pressure;BME280_temperature;BME280_humidity;BME280_pressure;Samples;Min_cycle;Max_cycle;Signal;HPM_P1;HPM_P2
2022/11/05 00:11:03;;;;;;;7.37;3.00;;;;;;;7.99;100.00;101427.38;5234472;28;20033;-71
2022/11/05 00:16:43;;;;;;;6.50;3.23;;;;;;;7.46;100.00;101390.28;5238595;28;20038;-72
2022/11/05 00:19:15;;;;;;;6.77;3.70;;;;;;;7.55;100.00;101428.19;5238912;28;20083;-73
2022/11/05 00:27:26;;;;;;;4.33;2.97;;;;;;;7.02;100.00;101371.03;5238896;28;20029;-73
2022/11/05 00:29:57;;;;;;;7.17;3.57;;;;;;;7.46;100.00;101437.19;5238098;28;20508;-71
2022/11/05 00:32:29;;;;;;;7.67;3.53;;;;;;;7.32;100.00;101440.31;5231037;28;20033;-74
2022/11/05 00:35:00;;;;;;;5.20;3.53;;;;;;;7.11;100.00;101440.19;5217324;28;20125;-75
2022/11/05 00:37:32;;;;;;;5.07;3.03;;;;;;;7.21;100.00;101446.75;5217070;28;20037;-74
2022/11/05 00:40:04;;;;;;;8.27;4.73;;;;;;;7.15;100.00;101444.38;5216929;28;20033;-74
2022/11/05 00:45:29;;;;;;;4.23;3.40;;;;;;;7.08;100.00;101464.59;5221800;28;20029;-73
2022/11/05 00:50:50;;;;;;;7.83;3.73;;;;;;;6.94;100.00;101441.63;5237192;28;20034;-73
2022/11/05 00:53:22;;;;;;;7.83;3.80;;;;;;;6.98;100.00;101473.63;5235636;28;20021;-74
2022/11/05 00:55:53;;;;;;;8.17;3.10;;;;;;;6.93;100.00;101460.75;5236315;28;20034;-75
2022/11/05 00:58:26;;;;;;;11.47;4.00;;;;;;;7.02;100.00;101470.88;5236608;28;20032;-75
2022/11/05 01:00:58;;;;;;;5.27;3.57;;;;;;;6.87;100.00;101464.44;5235935;28;20030;-75
2022/11/05 01:03:32;;;;;;;8.13;4.20;;;;;;;7.20;100.00;101484.16;5235718;28;20021;-75
2022/11/05 01:06:10;;;;;;;7.97;3.83;;;;;;;7.08;100.00;101481.97;5234348;28;20045;-74
2022/11/05 01:08:43;;;;;;;5.83;3.40;;;;;;;6.84;100.00;101466.28;5234384;28;20032;-74
2022/11/05 01:11:32;;;;;;;4.97;3.87;;;;;;;6.84;100.00;101463.69;5233972;28;20021;-74
2022/11/05 01:14:07;;;;;;;7.47;3.97;;;;;;;6.89;100.00;101486.03;5233731;28;20026;-74
2022/11/05 01:16:39;;;;;;;8.10;4.40;;;;;;;7.08;100.00;101489.78;5235219;28;20071;-75
2022/11/05 01:19:11;;;;;;;8.80;3.97;;;;;;;6.92;100.00;101490.31;5235196;28;20030;-74
2022/11/05 01:21:42;;;;;;;9.53;4.90;;;;;;;6.84;100.00;101500.16;5236093;28;20033;-74
2022/11/05 01:24:13;;;;;;;6.33;4.20;;;;;;;6.71;100.00;101491.88;5235034;28;20107;-74
2022/11/05 01:26:45;;;;;;;8.57;4.27;;;;;;;6.70;100.00;101500.59;5233356;28;20032;-75
2022/11/05 01:29:16;;;;;;;5.80;3.37;;;;;;;6.80;100.00;101491.59;5236777;28;20495;-75
2022/11/05 01:31:48;;;;;;;6.20;3.90;;;;;;;6.68;100.00;101508.47;5241637;28;20025;-75
2022/11/05 01:34:19;;;;;;;9.10;3.63;;;;;;;6.90;100.00;101507.75;5239961;28;20030;-74
2022/11/05 01:36:50;;;;;;;5.93;3.60;;;;;;;6.43;100.00;101478.00;5235686;28;20041;-73
2022/11/05 01:39:21;;;;;;;5.47;3.37;;;;;;;6.67;100.00;101506.75;5235930;28;20028;-73
2022/11/05 01:41:53;;;;;;;5.27;3.43;;;;;;;6.80;100.00;101490.72;5234338;28;20730;-74
2022/11/05 01:44:57;;;;;;;4.90;3.10;;;;;;;6.80;100.00;101515.00;5237148;28;20373;-75
2022/11/05 01:47:50;;;;;;;5.50;3.03;;;;;;;6.70;100.00;101513.63;5235039;28;20026;-74
2022/11/05 01:50:30;;;;;;;6.07;3.07;;;;;;;6.67;100.00;101514.56;5236042;28;20030;-74
2022/11/05 01:53:29;;;;;;;4.60;3.70;;;;;;;6.74;100.00;101516.06;5235021;28;20887;-74
2022/11/05 01:56:08;;;;;;;10.83;4.00;;;;;;;6.62;100.00;101495.63;5235860;28;20080;-74
2022/11/05 01:58:47;;;;;;;5.63;3.77;;;;;;;6.63;100.00;101515.56;5234538;28;20034;-74
2022/11/05 02:01:18;;;;;;;9.67;3.40;;;;;;;6.65;100.00;101503.34;5236120;28;20025;-74
2022/11/05 02:03:53;;;;;;;4.93;2.90;;;;;;;6.43;100.00;101503.19;5235118;28;20034;-74
2022/11/05 02:06:29;;;;;;;5.57;3.00;;;;;;;6.40;100.00;101497.19;5234626;28;20033;-73
2022/11/05 02:09:08;;;;;;;6.93;3.10;;;;;;;6.32;100.00;101501.75;5274206;22;20094;-73
2022/11/05 02:11:39;;;;;;;7.90;3.40;;;;;;;6.39;100.00;101479.84;5213128;28;20026;-74
2022/11/05 02:14:10;;;;;;;7.70;3.20;;;;;;;6.47;100.00;101497.00;5211570;28;20028;-74
2022/11/05 02:16:47;;;;;;;7.63;3.87;;;;;;;6.35;100.00;101493.88;5213119;28;20109;-73
2022/11/05 02:20:00;;;;;;;8.47;4.10;;;;;;;6.44;100.00;101494.50;5212691;28;20080;-74
2022/11/05 02:22:34;;;;;;;5.10;4.20;;;;;;;6.33;100.00;101505.22;5225151;28;20029;-73
2022/11/05 02:25:26;;;;;;;9.15;3.50;;;;;;;6.40;100.00;101504.13;5232575;28;20030;-73
2022/11/05 02:28:06;;;;;;;7.00;3.63;;;;;;;6.45;100.00;101496.19;5232676;28;20112;-73
2022/11/05 02:30:47;;;;;;;9.10;3.80;;;;;;;6.22;100.00;101495.16;5235831;28;20108;-74
2022/11/05 02:33:21;;;;;;;9.13;4.47;;;;;;;6.48;100.00;101507.34;5236958;28;20030;-74
2022/11/05 02:36:10;;;;;;;6.47;3.42;;;;;;;6.35;100.00;101498.22;5236666;28;20025;-74
2022/11/05 02:38:51;;;;;;;10.07;4.73;;;;;;;6.40;100.00;101488.53;5235697;28;20052;-74
2022/11/05 02:41:47;;;;;;;8.47;4.23;;;;;;;6.38;100.00;101485.97;5236107;28;20100;-73
2022/11/05 02:44:42;;;;;;;9.27;4.67;;;;;;;6.36;100.00;101494.72;5236710;28;20395;-74
2022/11/05 02:47:19;;;;;;;6.87;3.87;;;;;;;6.10;100.00;101480.78;5236854;28;20021;-74
2022/11/05 02:50:09;;;;;;;10.07;5.07;;;;;;;6.26;100.00;101487.22;5236146;28;20488;-74
2022/11/05 02:53:08;;;;;;;10.40;4.50;;;;;;;6.44;100.00;101500.53;5235802;28;20037;-74
2022/11/05 02:55:53;;;;;;;8.33;4.87;;;;;;;6.21;100.00;101483.91;5236254;28;20095;-74
2022/11/05 02:58:28;;;;;;;13.48;5.05;;;;;;;6.21;100.00;101490.84;5236630;28;20121;-73
2022/11/05 03:01:00;;;;;;;13.53;5.73;;;;;;;6.05;100.00;101491.31;5235684;28;20021;-74
2022/11/05 03:03:41;;;;;;;8.43;5.13;;;;;;;6.20;100.00;101491.72;5235302;28;20366;-74
2022/11/05 03:06:46;;;;;;;12.30;5.43;;;;;;;6.12;100.00;101498.06;5235752;28;20025;-74
2022/11/05 03:09:24;;;;;;;6.22;4.38;;;;;;;6.02;100.00;101500.03;5235451;28;20523;-74
2022/11/05 03:12:26;;;;;;;7.43;5.00;;;;;;;6.04;100.00;101494.78;5215571;28;20028;-75
2022/11/05 03:15:11;;;;;;;8.70;5.03;;;;;;;6.09;100.00;101492.09;5215528;28;20033;-74
2022/11/05 03:17:49;;;;;;;9.30;6.35;;;;;;;6.19;100.00;101496.09;5214051;28;20026;-75
2022/11/05 03:20:36;;;;;;;10.60;5.60;;;;;;;6.22;100.00;101490.81;5215594;28;20091;-74
2022/11/05 03:23:29;;;;;;;13.83;5.93;;;;;;;6.22;100.00;101501.22;5229132;28;20021;-73
2022/11/05 03:26:09;;;;;;;7.60;5.37;;;;;;;5.79;100.00;101488.59;5215015;28;20065;-74
2022/11/05 03:28:44;;;;;;;11.20;5.93;;;;;;;6.02;100.00;101474.03;5215262;28;20463;-74
2022/11/05 03:31:18;;;;;;;10.50;5.73;;;;;;;6.09;100.00;101497.28;5215155;28;20168;-74
2022/11/05 03:33:52;;;;;;;11.33;6.23;;;;;;;6.10;100.00;101501.56;5214454;28;20034;-74
2022/11/05 03:36:28;;;;;;;13.93;6.40;;;;;;;6.09;100.00;101499.88;5229903;28;20083;-75
2022/11/05 03:39:06;;;;;;;12.20;6.27;;;;;;;6.10;100.00;101511.97;5215029;28;20026;-74
2022/11/05 03:41:42;;;;;;;14.23;6.43;;;;;;;6.04;100.00;101506.03;5214400;28;20014;-74
2022/11/05 03:44:16;;;;;;;14.77;8.40;;;;;;;5.99;100.00;101494.06;5214668;28;20118;-74
2022/11/05 03:46:49;;;;;;;14.17;7.07;;;;;;;6.08;100.00;101503.38;5214669;28;20049;-74
2022/11/05 03:49:27;;;;;;;12.27;6.57;;;;;;;6.01;100.00;101507.88;5214183;28;20052;-74
2022/11/05 03:52:15;;;;;;;9.70;6.27;;;;;;;5.98;100.00;101492.38;5213686;28;20022;-74
2022/11/05 03:54:46;;;;;;;14.33;7.57;;;;;;;5.61;100.00;101450.13;5213999;28;20487;-74
2022/11/05 03:57:25;;;;;;;10.73;6.80;;;;;;;5.84;100.00;101500.56;5214813;28;20117;-74
2022/11/05 03:59:57;;;;;;;9.13;6.20;;;;;;;5.92;100.00;101509.00;5214172;28;20061;-74
2022/11/05 04:02:30;;;;;;;9.90;6.00;;;;;;;5.84;100.00;101508.38;5215061;28;20104;-74
2022/11/05 04:05:01;;;;;;;17.00;8.77;;;;;;;5.84;100.00;101503.19;5214201;28;20037;-74
2022/11/05 04:13:24;;;;;;;14.50;7.80;;;;;;;5.89;100.00;101506.50;5234937;28;20071;-74
2022/11/05 04:18:45;;;;;;;13.23;8.40;;;;;;;5.62;100.00;101511.59;5234507;28;20045;-75
2022/11/05 04:24:07;;;;;;;17.47;8.07;;;;;;;5.67;100.00;101500.16;5234724;28;20472;-74
2022/11/05 04:26:42;;;;;;;12.77;7.30;;;;;;;5.69;100.00;101520.91;5234469;28;20033;-74
2022/11/05 04:32:03;;;;;;;9.50;6.60;;;;;;;5.57;100.00;101530.75;5234382;28;20026;-74
2022/11/05 04:34:35;;;;;;;14.47;7.90;;;;;;;5.64;100.00;101508.06;5234946;28;20017;-74
2022/11/05 04:37:06;;;;;;;15.33;8.07;;;;;;;5.79;100.00;101530.19;5233202;28;20037;-74
2022/11/05 04:39:37;;;;;;;15.13;8.10;;;;;;;5.67;100.00;101520.94;5234766;28;20025;-74
2022/11/05 04:42:08;;;;;;;12.13;7.77;;;;;;;5.74;100.00;101526.81;5234648;28;20032;-74
2022/11/05 04:44:40;;;;;;;11.07;8.03;;;;;;;5.56;100.00;101518.69;5232933;28;20029;-74
2022/11/05 04:47:11;;;;;;;14.20;8.43;;;;;;;5.68;100.00;101529.59;5233886;28;20471;-74
2022/11/05 04:49:42;;;;;;;16.03;7.60;;;;;;;5.70;100.00;101530.44;5233562;28;20400;-74
2022/11/05 04:52:13;;;;;;;14.80;8.20;;;;;;;5.57;100.00;101522.97;5232739;28;20470;-74
2022/11/05 04:54:45;;;;;;;14.13;8.50;;;;;;;5.67;100.00;101533.13;5233341;28;20488;-73
2022/11/05 04:57:16;;;;;;;13.33;8.70;;;;;;;5.51;100.00;101527.47;5234494;28;20476;-74
2022/11/05 04:59:48;;;;;;;12.33;7.90;;;;;;;5.57;100.00;101548.94;5233751;28;20076;-74
2022/11/05 05:02:20;;;;;;;14.47;8.13;;;;;;;5.11;100.00;101487.84;5233153;28;20026;-74
2022/11/05 05:04:51;;;;;;;13.00;8.00;;;;;;;5.51;100.00;101527.47;5233332;28;20032;-74
2022/11/05 05:07:22;;;;;;;17.80;8.53;;;;;;;5.65;100.00;101551.34;5232517;28;20171;-75
2022/11/05 05:09:53;;;;;;;14.40;8.63;;;;;;;5.61;100.00;101549.72;5233046;28;20400;-74
2022/11/05 05:12:25;;;;;;;11.67;7.47;;;;;;;5.64;100.00;101551.38;5233738;28;20444;-74
2022/11/05 05:14:56;;;;;;;13.57;8.17;;;;;;;5.65;100.00;101550.50;5233033;28;20029;-74
2022/11/05 05:17:27;;;;;;;14.33;8.67;;;;;;;5.43;100.00;101527.69;5233762;28;20041;-75
2022/11/05 05:22:55;;;;;;;10.93;7.97;;;;;;;5.60;100.00;101554.97;5232810;28;20547;-74
2022/11/05 05:25:26;;;;;;;16.47;9.53;;;;;;;5.60;100.00;101560.16;5233945;28;20025;-73
2022/11/05 05:27:57;;;;;;;13.57;8.23;;;;;;;5.62;100.00;101555.78;5233059;28;20194;-74
2022/11/05 05:30:29;;;;;;;12.27;8.27;;;;;;;5.63;100.00;101562.66;5233510;28;20112;-74
2022/11/05 05:33:02;;;;;;;14.20;8.77;;;;;;;5.41;100.00;101560.66;5248323;28;20083;-73
2022/11/05 05:35:33;;;;;;;12.47;8.73;;;;;;;5.45;100.00;101551.88;5233436;28;20055;-74
2022/11/05 05:38:05;;;;;;;12.07;8.13;;;;;;;5.50;100.00;101562.16;5232520;28;20558;-74
2022/11/05 05:40:36;;;;;;;16.50;9.57;;;;;;;5.53;100.00;101562.91;5232815;28;20032;-74
2022/11/05 05:43:07;;;;;;;13.60;8.27;;;;;;;5.41;100.00;101547.69;5232784;28;20033;-74
2022/11/05 05:45:39;;;;;;;18.83;9.33;;;;;;;5.19;100.00;101566.41;5233308;28;20030;-73
2022/11/05 05:48:10;;;;;;;14.77;8.53;;;;;;;5.45;100.00;101576.13;5233150;28;20029;-74
2022/11/05 05:50:41;;;;;;;12.10;7.90;;;;;;;5.35;100.00;101555.63;5233969;28;20045;-74
2022/11/05 05:53:12;;;;;;;15.50;9.23;;;;;;;5.43;100.00;101567.50;5231505;28;20092;-74
2022/11/05 05:55:44;;;;;;;13.57;8.67;;;;;;;5.38;100.00;101565.91;5233055;28;20065;-74
2022/11/05 05:58:15;;;;;;;14.13;7.70;;;;;;;5.24;100.00;101566.28;5233220;28;20521;-74
2022/11/05 06:00:46;;;;;;;12.90;7.80;;;;;;;5.36;100.00;101572.94;5232883;28;20406;-74
2022/11/05 06:03:18;;;;;;;12.23;8.33;;;;;;;5.34;100.00;101570.38;5233586;28;20483;-74
2022/11/05 06:05:49;;;;;;;15.60;10.07;;;;;;;5.38;100.00;101571.13;5235283;28;20215;-73
2022/11/05 06:08:20;;;;;;;13.27;8.03;;;;;;;5.39;100.00;101578.03;5251675;28;20030;-74
2022/11/05 06:10:51;;;;;;;11.50;7.83;;;;;;;5.32;100.00;101567.78;5237147;28;20049;-73
2022/11/05 06:13:23;;;;;;;16.27;8.57;;;;;;;5.31;100.00;101566.09;5237231;28;20030;-74
2022/11/05 06:16:05;;;;;;;10.80;7.43;;;;;;;5.36;100.00;101567.72;5236446;28;20061;-73
2022/11/05 06:18:36;;;;;;;14.57;7.43;;;;;;;5.27;100.00;101564.44;5236579;28;20030;-73
2022/11/05 06:21:12;;;;;;;14.97;8.30;;;;;;;5.32;100.00;101585.97;5228128;28;20497;-74
2022/11/05 06:23:44;;;;;;;12.90;7.77;;;;;;;5.36;100.00;101585.91;5236557;28;20051;-74
2022/11/05 06:26:17;;;;;;;13.80;8.30;;;;;;;5.19;100.00;101587.19;5227175;28;20141;-74
2022/11/05 06:28:49;;;;;;;14.17;7.17;;;;;;;5.27;100.00;101584.41;5216165;28;20032;-73
2022/11/05 06:31:21;;;;;;;17.73;8.03;;;;;;;5.01;100.00;101591.09;5231273;28;20108;-74
2022/11/05 06:33:52;;;;;;;11.00;7.47;;;;;;;5.07;100.00;101581.41;5216383;28;20030;-73
2022/11/05 06:36:23;;;;;;;11.93;7.17;;;;;;;5.08;100.00;101595.22;5215309;28;20084;-74
2022/11/05 06:38:54;;;;;;;14.77;7.70;;;;;;;5.06;100.00;101569.31;5229321;28;20116;-74
2022/11/05 06:41:26;;;;;;;13.40;7.53;;;;;;;5.06;100.00;101571.06;5251873;28;20466;-74
2022/11/05 06:43:57;;;;;;;16.07;7.93;;;;;;;5.04;100.00;101596.22;5237893;28;20488;-74
2022/11/05 06:46:28;;;;;;;9.53;6.93;;;;;;;5.00;100.00;101587.63;5248836;28;20487;-73
2022/11/05 06:49:00;;;;;;;14.33;7.83;;;;;;;4.87;100.00;101581.03;5234701;28;20044;-74
2022/11/05 06:51:31;;;;;;;12.67;8.03;;;;;;;4.97;100.00;101591.16;5235426;28;20021;-75
2022/11/05 06:54:02;;;;;;;12.60;8.17;;;;;;;5.08;100.00;101592.63;5233688;28;20475;-74
2022/11/05 06:56:33;;;;;;;12.10;8.33;;;;;;;4.98;100.00;101594.59;5235600;28;20038;-75
2022/11/05 06:59:05;;;;;;;13.30;7.30;;;;;;;4.98;100.00;101584.22;5236833;28;20029;-74
2022/11/05 07:01:36;;;;;;;14.67;8.40;;;;;;;4.93;100.00;101596.47;5242441;28;20032;-74
2022/11/05 07:04:11;;;;;;;13.73;7.47;;;;;;;5.05;100.00;101606.56;5238550;28;20045;-74
2022/11/05 07:06:42;;;;;;;16.52;7.80;;;;;;;4.93;100.00;101601.66;5235803;28;20021;-74
2022/11/05 07:09:13;;;;;;;20.90;8.80;;;;;;;4.95;100.00;101612.84;5238320;28;20049;-73
2022/11/05 07:11:45;;;;;;;11.73;7.03;;;;;;;5.15;100.00;101616.72;5238809;28;20029;-73
2022/11/05 07:14:16;;;;;;;15.30;8.00;;;;;;;5.02;100.00;101600.59;5238989;28;20379;-73
2022/11/05 07:16:47;;;;;;;13.40;7.70;;;;;;;5.02;100.00;101596.25;5236140;28;20415;-74
2022/11/05 07:19:19;;;;;;;9.67;6.67;;;;;;;5.19;100.00;101613.16;5239558;28;20033;-73
2022/11/05 07:21:51;;;;;;;18.20;8.40;;;;;;;5.25;100.00;101618.22;5237971;28;20049;-74
2022/11/05 07:24:22;;;;;;;13.47;8.33;;;;;;;5.00;100.00;101591.97;5239032;28;20026;-74
2022/11/05 07:26:53;;;;;;;11.47;8.07;;;;;;;5.14;100.00;101602.88;5239013;28;20028;-74
2022/11/05 07:29:25;;;;;;;12.13;7.70;;;;;;;5.23;100.00;101614.78;5238740;28;20037;-74
2022/11/05 07:31:56;;;;;;;17.30;8.33;;;;;;;5.23;100.00;101612.19;5238510;28;20021;-74
2022/11/05 07:34:27;;;;;;;13.40;7.97;;;;;;;5.30;100.00;101629.34;5238287;28;20087;-74
2022/11/05 07:36:58;;;;;;;14.10;8.37;;;;;;;5.28;100.00;101631.13;5233970;28;20500;-74
2022/11/05 07:39:30;;;;;;;14.10;8.13;;;;;;;5.32;100.00;101624.94;5238358;28;20503;-74
2022/11/05 07:42:01;;;;;;;15.53;8.60;;;;;;;5.21;100.00;101632.16;5238399;28;20044;-73
2022/11/05 07:44:32;;;;;;;17.77;9.27;;;;;;;5.22;100.00;101626.06;5238359;28;20026;-73
2022/11/05 07:47:04;;;;;;;16.63;7.57;;;;;;;5.31;100.00;101623.25;5236348;28;20029;-74
2022/11/05 07:49:35;;;;;;;13.33;8.60;;;;;;;5.20;100.00;101607.09;5237070;28;20047;-74
2022/11/05 07:52:06;;;;;;;13.27;8.60;;;;;;;5.40;100.00;101636.88;5232224;28;20037;-74
2022/11/05 07:54:37;;;;;;;14.23;8.53;;;;;;;5.37;100.00;101643.03;5234505;28;20025;-74
2022/11/05 07:57:09;;;;;;;11.20;8.80;;;;;;;5.42;100.00;101650.69;5228935;28;20132;-73
2022/11/05 07:59:40;;;;;;;17.77;9.63;;;;;;;5.41;100.00;101646.41;5233092;28;20030;-74
2022/11/05 08:02:12;;;;;;;15.77;8.90;;;;;;;5.49;100.00;101644.44;5236181;28;20105;-73
2022/11/05 08:04:43;;;;;;;16.87;8.57;;;;;;;5.44;100.00;101633.31;5238047;28;20545;-74
2022/11/05 08:07:14;;;;;;;13.33;9.10;;;;;;;5.55;100.00;101640.84;5234833;28;20040;-73
2022/11/05 08:09:46;;;;;;;14.47;10.07;;;;;;;5.60;100.00;101645.91;5237247;28;20050;-74
2022/11/05 08:12:17;;;;;;;13.43;8.90;;;;;;;5.61;100.00;101640.69;5238024;28;20083;-74
2022/11/05 08:14:49;;;;;;;22.57;10.63;;;;;;;5.61;100.00;101639.81;5229072;28;20079;-73
2022/11/05 08:17:35;;;;;;;12.87;8.80;;;;;;;5.55;100.00;101617.47;5217171;28;20022;-74
2022/11/05 08:20:07;;;;;;;12.83;9.50;;;;;;;5.38;100.00;101587.56;5216954;28;20389;-71
2022/11/05 08:22:43;;;;;;;14.67;9.63;;;;;;;5.76;100.00;101634.22;5216317;28;20021;-72
2022/11/05 08:25:14;;;;;;;12.90;9.43;;;;;;;5.70;100.00;101613.59;5217012;28;20053;-73
2022/11/05 08:27:46;;;;;;;15.03;9.40;;;;;;;5.76;100.00;101618.63;5216610;28;20436;-72
2022/11/05 08:30:17;;;;;;;15.87;9.60;;;;;;;5.92;100.00;101633.81;5215513;28;20049;-74
2022/11/05 08:32:48;;;;;;;16.93;10.00;;;;;;;5.92;100.00;101626.00;5215615;28;20041;-73
2022/11/05 08:35:20;;;;;;;12.57;8.87;;;;;;;5.87;100.00;101607.06;5215795;28;20058;-73
2022/11/05 08:37:59;;;;;;;18.40;10.37;;;;;;;6.00;100.00;101624.06;5214433;28;20038;-73
2022/11/05 08:40:33;;;;;;;16.30;10.87;;;;;;;5.87;100.00;101610.53;5215451;28;20030;-73
2022/11/05 08:43:06;;;;;;;14.40;10.25;;;;;;;6.12;100.00;101640.22;5216326;28;20046;-73
2022/11/05 08:45:39;;;;;;;16.63;9.77;;;;;;;6.22;100.00;101643.41;5216808;28;20453;-73
2022/11/05 08:48:16;;;;;;;16.53;10.57;;;;;;;6.23;100.00;101632.97;5215926;28;20380;-73
2022/11/05 08:50:48;;;;;;;18.80;9.80;;;;;;;6.24;100.00;101634.69;5218871;28;20372;-74
2022/11/05 08:53:19;;;;;;;14.77;10.00;;;;;;;6.29;100.00;101631.94;5238208;28;20116;-74
2022/11/05 08:55:50;;;;;;;12.63;8.33;;;;;;;6.39;100.00;101642.94;5237881;28;20433;-73
2022/11/05 08:58:22;;;;;;;12.83;8.90;;;;;;;6.48;100.00;101637.47;5238032;28;20396;-74
2022/11/05 09:00:53;;;;;;;15.70;8.73;;;;;;;6.35;100.00;101616.19;5235272;28;20021;-73
2022/11/05 09:03:24;;;;;;;15.97;8.93;;;;;;;6.46;100.00;101628.84;5232828;28;20033;-72
2022/11/05 09:05:55;;;;;;;13.23;8.53;;;;;;;6.64;100.00;101631.78;5224261;28;20030;-74
2022/11/05 09:08:27;;;;;;;14.57;9.17;;;;;;;6.93;100.00;101642.22;5216977;28;20030;-73
2022/11/05 09:10:58;;;;;;;13.97;8.97;;;;;;;7.15;100.00;101642.38;5233234;28;20045;-74
2022/11/05 09:13:30;;;;;;;11.87;8.03;;;;;;;7.23;100.00;101637.75;5237560;28;20025;-74
2022/11/05 09:16:01;;;;;;;15.83;8.43;;;;;;;7.37;100.00;101642.50;5234332;28;20041;-73
2022/11/05 09:18:33;;;;;;;13.37;8.37;;;;;;;7.52;100.00;101640.31;5237568;28;20032;-74
2022/11/05 09:21:07;;;;;;;15.70;8.37;;;;;;;8.05;100.00;101627.16;5233604;28;20384;-73
2022/11/05 09:23:39;;;;;;;13.50;7.50;;;;;;;9.91;100.00;101620.63;5237015;28;20518;-73
2022/11/05 09:26:12;;;;;;;10.87;6.20;;;;;;;11.52;100.00;101622.72;5230648;28;20030;-72
2022/11/05 09:28:43;;;;;;;12.87;6.90;;;;;;;12.19;100.00;101569.38;5232952;28;20081;-74
2022/11/05 09:31:14;;;;;;;11.00;5.87;;;;;;;12.67;100.00;101628.09;5237292;28;20017;-72
2022/11/05 09:33:46;;;;;;;10.50;6.00;;;;;;;12.81;100.00;101640.44;5216966;28;20026;-72
2022/11/05 09:36:17;;;;;;;12.63;5.83;;;;;;;13.29;100.00;101629.81;5234302;28;20104;-72
2022/11/05 09:38:48;;;;;;;9.33;5.67;;;;;;;12.88;100.00;101612.84;5236781;28;20480;-73
2022/11/05 09:41:28;;;;;;;10.10;5.47;;;;;;;12.87;100.00;101649.75;5237044;28;20037;-74
2022/11/05 09:44:04;;;;;;;12.67;4.93;;;;;;;12.26;100.00;101632.91;5228335;28;20029;-74
2022/11/05 09:46:51;;;;;;;9.13;5.10;;;;;;;12.22;100.00;101645.34;5221564;28;20075;-73
2022/11/05 09:49:38;;;;;;;10.43;5.40;;;;;;;11.86;100.00;101652.47;5221127;28;20389;-73
2022/11/05 09:52:17;;;;;;;7.33;5.23;;;;;;;11.49;100.00;101634.22;5234712;28;20030;-74
2022/11/05 09:54:49;;;;;;;12.50;5.40;;;;;;;11.41;100.00;101641.63;5231736;28;20483;-73
2022/11/05 09:57:28;;;;;;;8.53;5.70;;;;;;;11.18;100.00;101641.00;5231186;28;20092;-72
2022/11/05 10:00:04;;;;;;;7.10;4.27;;;;;;;11.35;100.00;101671.63;5226679;28;20025;-73
2022/11/05 10:02:52;;;;;;;9.53;5.17;;;;;;;11.17;100.00;101665.53;5223157;28;20099;-72
2022/11/05 10:05:25;;;;;;;10.60;5.37;;;;;;;10.92;100.00;101652.78;5213466;28;20026;-71
2022/11/05 10:08:08;;;;;;;12.57;5.07;;;;;;;11.04;100.00;101673.16;5224375;28;20092;-72
2022/11/05 10:10:53;;;;;;;12.33;6.33;;;;;;;10.98;100.00;101674.28;5229304;28;20072;-73
2022/11/05 10:13:35;;;;;;;11.93;6.45;;;;;;;10.86;100.00;101682.72;5219740;28;20061;-73
2022/11/05 10:16:26;;;;;;;12.13;7.23;;;;;;;10.79;100.00;101682.19;5230563;28;20403;-73
2022/11/05 10:19:13;;;;;;;11.07;7.47;;;;;;;10.70;100.00;101687.88;5232426;28;20037;-72
2022/11/05 10:21:44;;;;;;;10.53;6.90;;;;;;;10.64;100.00;101684.63;5214071;28;20030;-72
2022/11/05 10:24:18;;;;;;;12.27;6.90;;;;;;;10.24;100.00;101652.38;5234625;28;20365;-73
2022/11/05 10:26:51;;;;;;;;;;;;;;;10.81;100.00;101692.59;5235517;28;20507;-72
2022/11/05 10:29:28;;;;;;;13.93;7.70;;;;;;;10.28;100.00;101646.09;5235109;28;19944;-72
2022/11/05 10:32:04;;;;;;;13.73;7.73;;;;;;;10.56;100.00;101691.13;5235175;28;20084;-72
2022/11/05 10:34:38;;;;;;;12.20;6.67;;;;;;;10.32;100.00;101668.56;5234984;28;20029;-72
2022/11/05 10:37:09;;;;;;;11.73;6.47;;;;;;;10.41;100.00;101673.41;5233047;28;20033;-73
2022/11/05 10:39:40;;;;;;;9.27;6.10;;;;;;;10.55;100.00;101698.13;5232803;28;20021;-74
2022/11/05 10:42:33;;;;;;;12.73;6.43;;;;;;;10.55;100.00;101692.91;5234411;28;20029;-72
2022/11/05 10:45:13;;;;;;;11.83;6.07;;;;;;;10.48;100.00;101694.09;5233615;28;20057;-73
2022/11/05 10:48:08;;;;;;;10.73;6.30;;;;;;;10.46;100.00;101690.66;5233817;28;20037;-73
2022/11/05 10:50:42;;;;;;;11.13;6.27;;;;;;;10.10;100.00;101648.63;5221560;28;20040;-73
2022/11/05 10:53:18;;;;;;;9.20;6.00;;;;;;;10.36;100.00;101693.72;5235852;28;20119;-72
2022/11/05 10:55:50;;;;;;;10.33;6.47;;;;;;;10.25;100.00;101651.44;5237570;28;20388;-73
2022/11/05 10:58:29;;;;;;;10.17;6.00;;;;;;;10.38;100.00;101683.16;5238210;28;20029;-73
2022/11/05 11:01:07;;;;;;;11.97;7.17;;;;;;;10.29;100.00;101676.56;5238543;28;20076;-73
2022/11/05 11:04:02;;;;;;;9.03;5.83;;;;;;;10.30;100.00;101670.41;5234042;28;20036;-73
2022/11/05 11:06:36;;;;;;;12.20;6.33;;;;;;;10.09;100.00;101661.78;5234218;28;20056;-75
2022/11/05 11:09:29;;;;;;;14.82;7.30;;;;;;;10.44;100.00;101695.13;5245657;28;20047;-75
2022/11/05 11:12:06;;;;;;;16.10;7.67;;;;;;;10.41;100.00;101686.50;5231563;28;20029;-74
2022/11/05 11:14:37;;;;;;;12.73;6.20;;;;;;;10.53;100.00;101689.50;5228179;28;20108;-74
2022/11/05 11:17:29;;;;;;;10.20;6.77;;;;;;;10.49;100.00;101673.06;5229414;28;20114;-73
2022/11/05 11:20:20;;;;;;;12.97;6.90;;;;;;;10.55;100.00;101679.81;5230021;28;20116;-74
2022/11/05 11:22:58;;;;;;;15.47;6.90;;;;;;;10.45;100.00;101662.78;5229565;28;20048;-73
2022/11/05 11:25:49;;;;;;;9.10;5.73;;;;;;;10.61;100.00;101674.25;5230430;28;20025;-74
2022/11/05 11:28:28;;;;;;;11.53;6.80;;;;;;;10.65;100.00;101664.50;5228983;28;20025;-73
2022/11/05 11:31:13;;;;;;;14.33;6.67;;;;;;;10.45;100.00;101610.41;5229588;28;20041;-72
2022/11/05 11:33:48;;;;;;;13.47;6.63;;;;;;;10.73;100.00;101648.41;5228914;28;20727;-72
2022/11/05 11:36:23;;;;;;;;;;;;;;;11.15;100.00;101663.91;5228272;28;20061;-73
2022/11/05 11:39:00;;;;;;;10.83;7.17;;;;;;;11.08;100.00;101666.81;5228103;28;19971;-74
2022/11/05 11:41:38;;;;;;;12.70;6.60;;;;;;;11.21;100.00;101664.47;5228001;28;20395;-73
2022/11/05 11:44:19;;;;;;;12.30;5.80;;;;;;;11.20;100.00;101661.91;5227918;28;20032;-74
2022/11/05 11:46:55;;;;;;;13.60;6.77;;;;;;;11.30;100.00;101670.16;5227039;28;20087;-73
2022/11/05 11:49:29;;;;;;;10.90;5.20;;;;;;;11.34;100.00;101654.22;5227836;28;20396;-71
2022/11/05 11:52:04;;;;;;;17.30;6.57;;;;;;;11.48;100.00;101671.03;5227310;28;20695;-72
2022/11/05 11:54:36;;;;;;;13.83;6.20;;;;;;;11.44;100.00;101653.72;5228774;28;20032;-72
2022/11/05 11:57:27;;;;;;;17.20;6.40;;;;;;;11.57;100.00;101665.28;5233646;28;20112;-73
2022/11/05 12:00:02;;;;;;;15.13;5.30;;;;;;;11.60;100.00;101672.19;5229138;28;20407;-80
2022/11/05 12:02:46;;;;;;;11.70;5.80;;;;;;;11.46;100.00;101660.63;5231765;28;20384;-73
2022/11/05 12:05:30;;;;;;;10.37;5.20;;;;;;;11.52;100.00;101648.94;5230135;28;20057;-71
2022/11/05 12:08:37;;;;;;;7.00;4.80;;;;;;;11.42;100.00;101655.59;5232852;28;20041;-72
2022/11/05 12:11:40;;;;;;;9.27;4.50;;;;;;;11.38;100.00;101642.63;5232348;28;20898;-72
2022/11/05 12:14:17;;;;;;;13.33;5.27;;;;;;;11.29;100.00;101622.13;5227838;28;20049;-72
2022/11/05 12:16:54;;;;;;;14.40;5.20;;;;;;;11.49;100.00;101657.84;5230279;28;20455;-72
2022/11/05 12:19:42;;;;;;;10.17;4.70;;;;;;;11.34;100.00;101635.84;5232584;28;20033;-71
2022/11/05 12:22:37;;;;;;;11.27;4.73;;;;;;;11.50;100.00;101650.81;5231802;28;20034;-73
2022/11/05 12:25:17;;;;;;;7.88;4.88;;;;;;;11.48;100.00;101663.16;5232014;28;20397;-73
2022/11/05 12:28:03;;;;;;;15.13;5.30;;;;;;;11.38;100.00;101637.38;5231824;28;20036;-71
2022/11/05 12:31:01;;;;;;;9.53;4.33;;;;;;;11.47;100.00;101648.31;5230282;28;20489;-72
2022/11/05 12:33:54;;;;;;;9.20;4.63;;;;;;;11.45;100.00;101637.91;5241684;28;20133;-72
2022/11/05 12:36:50;;;;;;;10.70;4.50;;;;;;;11.38;100.00;101632.13;5228652;28;20669;-72
2022/11/05 12:39:44;;;;;;;8.60;4.90;;;;;;;11.27;100.00;101616.09;5230620;28;20503;-72